ETHF METAR and TAF | Updated Today

ETHF METAR

Fritzlar Airport

Observation time: 34 min. ago

ETHF 292120Z AUTO 28003KT 0350 // ////// 06/05 Q1007 ///

Need help? Read our tutorial on how to read METARs or read the parsed version below.

Fritzlar Airport (ETHF) METAR

  • Weather conditions on Thu, 29 Sep 2022 21:20:00 +0000 (34 min. ago):
  • Present conditions: Dry
  • Clouds: Clear skies
  • Visibility: 350 meters
  • Wind: 280 degrees at 3 knots
  • Temperature: 6 celsius
  • Dew point: 5 celsius
  • Pressure: 1007 millibars
  • Remarks: None


Useful to know...

  • Codes: ETHF/FRZ
  • Airport elevation: 1345ft
  • Municipality: Fritzlar
  • Country: Germany
  • Continent: Europe

ETHF TAF

Fritzlar Airport

TAF ETHF 291330Z 2914/2923 22005KT 9999 NSW SCT020
Observation time: 8:24 hr. ago
Need help? Read our tutorial on how to read TAFs or read the parsed version below.

Parsed version of TAF for Fritzlar Airport (ETHF)

  • From 29 September at 14:00 UTC, to day 29 of the month at 23:00 UTC
  • Clouds: No significant weather are observed; scattered at 610 meters
  • Visibility: Greater than 10 km
  • Wind: 220 degrees at 5